sensor_id;sensor_type;location;lat;lon;timestamp;P1;durP1;ratioP1;P2;durP2;ratioP2
7031;SDS011;3557;48.880;8.328;2023-08-30T00:01:12;6.10;;;2.45;;
7031;SDS011;3557;48.880;8.328;2023-08-30T00:03:40;3.17;;;2.50;;
7031;SDS011;3557;48.880;8.328;2023-08-30T00:06:07;3.17;;;2.30;;
7031;SDS011;3557;48.880;8.328;2023-08-30T00:08:34;4.05;;;2.90;;
7031;SDS011;3557;48.880;8.328;2023-08-30T00:11:03;2.65;;;2.45;;
7031;SDS011;3557;48.880;8.328;2023-08-30T00:13:31;4.43;;;3.00;;
7031;SDS011;3557;48.880;8.328;2023-08-30T00:15:59;3.63;;;2.58;;
7031;SDS011;3557;48.880;8.328;2023-08-30T00:18:27;2.70;;;2.28;;
7031;SDS011;3557;48.880;8.328;2023-08-30T00:20:55;3.22;;;2.50;;
7031;SDS011;3557;48.880;8.328;2023-08-30T00:23:23;3.85;;;2.35;;
7031;SDS011;3557;48.880;8.328;2023-08-30T00:25:50;6.45;;;2.60;;
7031;SDS011;3557;48.880;8.328;2023-08-30T00:28:19;2.83;;;2.30;;
7031;SDS011;3557;48.880;8.328;2023-08-30T00:30:46;2.92;;;2.30;;
7031;SDS011;3557;48.880;8.328;2023-08-30T00:33:18;3.22;;;2.20;;
7031;SDS011;3557;48.880;8.328;2023-08-30T00:35:46;2.67;;;2.47;;
7031;SDS011;3557;48.880;8.328;2023-08-30T00:38:13;8.60;;;2.40;;
7031;SDS011;3557;48.880;8.328;2023-08-30T00:40:40;6.22;;;2.53;;
7031;SDS011;3557;48.880;8.328;2023-08-30T00:43:09;2.85;;;2.25;;
7031;SDS011;3557;48.880;8.328;2023-08-30T00:45:38;2.60;;;2.40;;
7031;SDS011;3557;48.880;8.328;2023-08-30T00:48:06;4.47;;;2.30;;
7031;SDS011;3557;48.880;8.328;2023-08-30T00:50:34;3.17;;;2.40;;
7031;SDS011;3557;48.880;8.328;2023-08-30T00:53:02;2.60;;;2.40;;
7031;SDS011;3557;48.880;8.328;2023-08-30T00:55:32;3.00;;;2.30;;
7031;SDS011;3557;48.880;8.328;2023-08-30T00:57:59;2.67;;;2.30;;
7031;SDS011;3557;48.880;8.328;2023-08-30T01:00:27;3.30;;;2.00;;
7031;SDS011;3557;48.880;8.328;2023-08-30T01:02:57;3.25;;;2.20;;
7031;SDS011;3557;48.880;8.328;2023-08-30T01:05:26;4.50;;;2.20;;
7031;SDS011;3557;48.880;8.328;2023-08-30T01:07:53;4.15;;;2.17;;
7031;SDS011;3557;48.880;8.328;2023-08-30T01:10:22;4.15;;;2.13;;
7031;SDS011;3557;48.880;8.328;2023-08-30T01:12:58;6.03;;;2.67;;
7031;SDS011;3557;48.880;8.328;2023-08-30T01:15:32;7.38;;;2.10;;
7031;SDS011;3557;48.880;8.328;2023-08-30T01:18:03;2.60;;;2.15;;
7031;SDS011;3557;48.880;8.328;2023-08-30T01:20:34;5.13;;;2.00;;
7031;SDS011;3557;48.880;8.328;2023-08-30T01:23:05;4.25;;;2.22;;
7031;SDS011;3557;48.880;8.328;2023-08-30T01:25:42;2.40;;;2.20;;
7031;SDS011;3557;48.880;8.328;2023-08-30T01:28:16;4.43;;;2.00;;
7031;SDS011;3557;48.880;8.328;2023-08-30T01:30:47;3.53;;;2.00;;
7031;SDS011;3557;48.880;8.328;2023-08-30T01:33:15;4.15;;;1.88;;
7031;SDS011;3557;48.880;8.328;2023-08-30T01:35:44;2.47;;;2.17;;
7031;SDS011;3557;48.880;8.328;2023-08-30T01:38:12;3.78;;;2.08;;
7031;SDS011;3557;48.880;8.328;2023-08-30T01:40:41;2.05;;;1.90;;
7031;SDS011;3557;48.880;8.328;2023-08-30T01:43:10;2.50;;;2.00;;
7031;SDS011;3557;48.880;8.328;2023-08-30T01:45:40;2.28;;;1.90;;
7031;SDS011;3557;48.880;8.328;2023-08-30T01:48:09;3.15;;;1.90;;
7031;SDS011;3557;48.880;8.328;2023-08-30T01:50:39;4.18;;;1.90;;
7031;SDS011;3557;48.880;8.328;2023-08-30T01:53:08;2.92;;;2.10;;
7031;SDS011;3557;48.880;8.328;2023-08-30T01:55:36;5.93;;;2.13;;
7031;SDS011;3557;48.880;8.328;2023-08-30T01:58:06;1.83;;;1.70;;
7031;SDS011;3557;48.880;8.328;2023-08-30T02:00:34;3.80;;;1.80;;
7031;SDS011;3557;48.880;8.328;2023-08-30T02:03:08;4.20;;;1.90;;
7031;SDS011;3557;48.880;8.328;2023-08-30T02:05:37;3.72;;;1.80;;
7031;SDS011;3557;48.880;8.328;2023-08-30T02:08:11;4.43;;;1.90;;
7031;SDS011;3557;48.880;8.328;2023-08-30T02:10:44;6.10;;;1.70;;
7031;SDS011;3557;48.880;8.328;2023-08-30T02:13:25;5.43;;;2.03;;
7031;SDS011;3557;48.880;8.328;2023-08-30T02:15:54;2.15;;;1.70;;
7031;SDS011;3557;48.880;8.328;2023-08-30T02:18:24;3.47;;;1.65;;
7031;SDS011;3557;48.880;8.328;2023-08-30T02:20:56;3.00;;;1.90;;
7031;SDS011;3557;48.880;8.328;2023-08-30T02:23:23;4.50;;;1.70;;
7031;SDS011;3557;48.880;8.328;2023-08-30T02:25:51;2.45;;;1.90;;
7031;SDS011;3557;48.880;8.328;2023-08-30T02:28:20;2.83;;;1.85;;
7031;SDS011;3557;48.880;8.328;2023-08-30T02:30:47;4.78;;;2.00;;
7031;SDS011;3557;48.880;8.328;2023-08-30T02:33:15;3.58;;;1.77;;
7031;SDS011;3557;48.880;8.328;2023-08-30T02:35:44;3.15;;;2.03;;
7031;SDS011;3557;48.880;8.328;2023-08-30T02:38:12;4.57;;;2.10;;
7031;SDS011;3557;48.880;8.328;2023-08-30T02:40:40;2.38;;;1.73;;
7031;SDS011;3557;48.880;8.328;2023-08-30T02:43:07;2.25;;;1.92;;
7031;SDS011;3557;48.880;8.328;2023-08-30T02:45:35;2.17;;;1.95;;
7031;SDS011;3557;48.880;8.328;2023-08-30T02:48:03;2.90;;;1.90;;
7031;SDS011;3557;48.880;8.328;2023-08-30T02:50:31;8.57;;;2.72;;
7031;SDS011;3557;48.880;8.328;2023-08-30T02:53:00;3.30;;;1.92;;
7031;SDS011;3557;48.880;8.328;2023-08-30T02:55:30;2.35;;;2.15;;
7031;SDS011;3557;48.880;8.328;2023-08-30T02:57:57;3.60;;;2.00;;
7031;SDS011;3557;48.880;8.328;2023-08-30T03:00:26;2.50;;;2.15;;
7031;SDS011;3557;48.880;8.328;2023-08-30T03:02:55;2.30;;;2.10;;
7031;SDS011;3557;48.880;8.328;2023-08-30T03:05:23;5.40;;;2.10;;
7031;SDS011;3557;48.880;8.328;2023-08-30T03:07:52;2.97;;;1.98;;
7031;SDS011;3557;48.880;8.328;2023-08-30T03:10:23;5.28;;;2.30;;
7031;SDS011;3557;48.880;8.328;2023-08-30T03:12:51;2.22;;;1.80;;
7031;SDS011;3557;48.880;8.328;2023-08-30T03:15:19;3.55;;;2.22;;
7031;SDS011;3557;48.880;8.328;2023-08-30T03:17:46;2.72;;;1.92;;
7031;SDS011;3557;48.880;8.328;2023-08-30T03:20:14;3.35;;;1.95;;
7031;SDS011;3557;48.880;8.328;2023-08-30T03:22:42;3.88;;;2.10;;
7031;SDS011;3557;48.880;8.328;2023-08-30T03:25:09;4.38;;;2.00;;
7031;SDS011;3557;48.880;8.328;2023-08-30T03:27:39;2.38;;;2.17;;
7031;SDS011;3557;48.880;8.328;2023-08-30T03:30:07;3.08;;;1.98;;
7031;SDS011;3557;48.880;8.328;2023-08-30T03:32:36;3.42;;;2.08;;
7031;SDS011;3557;48.880;8.328;2023-08-30T03:35:04;3.08;;;2.08;;
7031;SDS011;3557;48.880;8.328;2023-08-30T03:37:33;2.60;;;2.10;;
7031;SDS011;3557;48.880;8.328;2023-08-30T03:40:00;2.78;;;2.00;;
7031;SDS011;3557;48.880;8.328;2023-08-30T03:42:29;3.00;;;2.00;;
7031;SDS011;3557;48.880;8.328;2023-08-30T03:44:58;2.40;;;1.95;;
7031;SDS011;3557;48.880;8.328;2023-08-30T03:47:26;2.35;;;2.03;;
7031;SDS011;3557;48.880;8.328;2023-08-30T03:49:53;2.78;;;2.10;;
7031;SDS011;3557;48.880;8.328;2023-08-30T03:52:20;2.53;;;2.03;;
7031;SDS011;3557;48.880;8.328;2023-08-30T03:54:48;2.00;;;1.90;;
7031;SDS011;3557;48.880;8.328;2023-08-30T03:57:15;2.00;;;1.90;;
7031;SDS011;3557;48.880;8.328;2023-08-30T03:59:42;7.78;;;2.83;;
7031;SDS011;3557;48.880;8.328;2023-08-30T04:02:12;2.28;;;1.95;;
7031;SDS011;3557;48.880;8.328;2023-08-30T04:04:40;3.08;;;2.30;;
7031;SDS011;3557;48.880;8.328;2023-08-30T04:07:08;2.20;;;2.00;;
7031;SDS011;3557;48.880;8.328;2023-08-30T04:09:36;2.67;;;2.20;;
7031;SDS011;3557;48.880;8.328;2023-08-30T04:12:03;2.20;;;2.00;;
7031;SDS011;3557;48.880;8.328;2023-08-30T04:14:32;2.58;;;2.15;;
7031;SDS011;3557;48.880;8.328;2023-08-30T04:16:59;2.08;;;1.90;;
7031;SDS011;3557;48.880;8.328;2023-08-30T04:19:29;2.65;;;1.98;;
7031;SDS011;3557;48.880;8.328;2023-08-30T04:21:56;2.63;;;2.22;;
7031;SDS011;3557;48.880;8.328;2023-08-30T04:24:23;3.45;;;2.10;;
7031;SDS011;3557;48.880;8.328;2023-08-30T04:26:51;2.15;;;1.90;;
7031;SDS011;3557;48.880;8.328;2023-08-30T04:29:19;3.60;;;1.98;;
7031;SDS011;3557;48.880;8.328;2023-08-30T04:31:47;4.00;;;2.00;;
7031;SDS011;3557;48.880;8.328;2023-08-30T04:34:15;3.03;;;2.05;;
7031;SDS011;3557;48.880;8.328;2023-08-30T04:36:43;4.88;;;1.90;;
7031;SDS011;3557;48.880;8.328;2023-08-30T04:39:12;4.50;;;1.95;;
7031;SDS011;3557;48.880;8.328;2023-08-30T04:41:39;2.20;;;1.90;;
7031;SDS011;3557;48.880;8.328;2023-08-30T04:44:07;3.20;;;1.92;;
7031;SDS011;3557;48.880;8.328;2023-08-30T04:46:35;4.72;;;1.90;;
7031;SDS011;3557;48.880;8.328;2023-08-30T04:49:02;1.90;;;1.80;;
7031;SDS011;3557;48.880;8.328;2023-08-30T04:51:31;4.10;;;2.00;;
7031;SDS011;3557;48.880;8.328;2023-08-30T04:54:00;3.53;;;2.00;;
7031;SDS011;3557;48.880;8.328;2023-08-30T04:56:27;4.63;;;1.95;;
7031;SDS011;3557;48.880;8.328;2023-08-30T04:58:55;2.65;;;1.95;;
7031;SDS011;3557;48.880;8.328;2023-08-30T05:01:23;2.10;;;1.88;;
7031;SDS011;3557;48.880;8.328;2023-08-30T05:03:54;2.22;;;2.00;;
7031;SDS011;3557;48.880;8.328;2023-08-30T05:06:22;3.75;;;2.13;;
7031;SDS011;3557;48.880;8.328;2023-08-30T05:08:50;3.30;;;2.00;;
7031;SDS011;3557;48.880;8.328;2023-08-30T05:11:19;2.17;;;1.88;;
7031;SDS011;3557;48.880;8.328;2023-08-30T05:13:47;4.50;;;2.00;;
7031;SDS011;3557;48.880;8.328;2023-08-30T05:16:14;2.35;;;1.70;;
7031;SDS011;3557;48.880;8.328;2023-08-30T05:18:41;3.55;;;2.47;;
7031;SDS011;3557;48.880;8.328;2023-08-30T05:21:09;2.92;;;1.90;;
7031;SDS011;3557;48.880;8.328;2023-08-30T05:23:36;2.33;;;1.92;;
7031;SDS011;3557;48.880;8.328;2023-08-30T05:26:07;3.58;;;1.90;;
7031;SDS011;3557;48.880;8.328;2023-08-30T05:28:36;3.92;;;2.10;;
7031;SDS011;3557;48.880;8.328;2023-08-30T05:31:04;7.85;;;2.10;;
7031;SDS011;3557;48.880;8.328;2023-08-30T05:33:50;4.30;;;2.13;;
7031;SDS011;3557;48.880;8.328;2023-08-30T05:36:43;2.20;;;2.00;;
7031;SDS011;3557;48.880;8.328;2023-08-30T05:39:24;2.42;;;1.90;;
7031;SDS011;3557;48.880;8.328;2023-08-30T05:41:55;2.20;;;2.00;;
7031;SDS011;3557;48.880;8.328;2023-08-30T05:44:24;2.35;;;1.90;;
7031;SDS011;3557;48.880;8.328;2023-08-30T05:46:52;3.22;;;2.13;;
7031;SDS011;3557;48.880;8.328;2023-08-30T05:49:19;2.95;;;1.83;;
7031;SDS011;3557;48.880;8.328;2023-08-30T05:51:47;3.33;;;2.40;;
7031;SDS011;3557;48.880;8.328;2023-08-30T05:54:14;1.95;;;1.75;;
7031;SDS011;3557;48.880;8.328;2023-08-30T05:56:41;2.67;;;2.10;;
7031;SDS011;3557;48.880;8.328;2023-08-30T05:59:09;2.35;;;2.10;;
7031;SDS011;3557;48.880;8.328;2023-08-30T06:01:37;4.80;;;2.03;;
7031;SDS011;3557;48.880;8.328;2023-08-30T06:04:05;2.20;;;2.00;;
7031;SDS011;3557;48.880;8.328;2023-08-30T06:06:32;2.22;;;1.90;;
7031;SDS011;3557;48.880;8.328;2023-08-30T06:09:00;2.20;;;2.00;;
7031;SDS011;3557;48.880;8.328;2023-08-30T06:11:28;3.10;;;1.95;;
7031;SDS011;3557;48.880;8.328;2023-08-30T06:13:56;3.67;;;1.80;;
7031;SDS011;3557;48.880;8.328;2023-08-30T06:16:24;2.38;;;2.00;;
7031;SDS011;3557;48.880;8.328;2023-08-30T06:18:52;2.05;;;1.90;;
7031;SDS011;3557;48.880;8.328;2023-08-30T06:21:20;1.95;;;1.70;;
7031;SDS011;3557;48.880;8.328;2023-08-30T06:23:47;2.38;;;1.80;;
7031;SDS011;3557;48.880;8.328;2023-08-30T06:26:15;3.33;;;1.83;;
7031;SDS011;3557;48.880;8.328;2023-08-30T06:28:43;2.47;;;1.75;;
7031;SDS011;3557;48.880;8.328;2023-08-30T06:31:10;2.45;;;2.22;;
7031;SDS011;3557;48.880;8.328;2023-08-30T06:33:37;2.58;;;1.88;;
7031;SDS011;3557;48.880;8.328;2023-08-30T06:36:07;1.80;;;1.70;;
7031;SDS011;3557;48.880;8.328;2023-08-30T06:38:36;2.22;;;1.90;;
7031;SDS011;3557;48.880;8.328;2023-08-30T06:41:03;1.90;;;1.80;;
7031;SDS011;3557;48.880;8.328;2023-08-30T06:43:31;2.38;;;1.80;;
7031;SDS011;3557;48.880;8.328;2023-08-30T06:45:58;2.20;;;1.80;;
7031;SDS011;3557;48.880;8.328;2023-08-30T06:48:25;2.53;;;1.70;;
7031;SDS011;3557;48.880;8.328;2023-08-30T06:50:56;1.90;;;1.80;;
7031;SDS011;3557;48.880;8.328;2023-08-30T06:53:25;2.10;;;1.85;;
7031;SDS011;3557;48.880;8.328;2023-08-30T06:55:56;2.00;;;1.80;;
7031;SDS011;3557;48.880;8.328;2023-08-30T06:58:24;3.58;;;1.90;;
7031;SDS011;3557;48.880;8.328;2023-08-30T07:00:52;3.97;;;1.98;;
7031;SDS011;3557;48.880;8.328;2023-08-30T07:03:20;3.20;;;1.90;;
7031;SDS011;3557;48.880;8.328;2023-08-30T07:05:47;2.67;;;1.73;;
7031;SDS011;3557;48.880;8.328;2023-08-30T07:08:16;1.80;;;1.70;;
7031;SDS011;3557;48.880;8.328;2023-08-30T07:10:45;4.30;;;1.70;;
7031;SDS011;3557;48.880;8.328;2023-08-30T07:13:13;2.35;;;1.77;;
7031;SDS011;3557;48.880;8.328;2023-08-30T07:15:41;2.03;;;1.80;;
7031;SDS011;3557;48.880;8.328;2023-08-30T07:18:09;5.47;;;1.92;;
7031;SDS011;3557;48.880;8.328;2023-08-30T07:20:38;1.95;;;1.80;;
7031;SDS011;3557;48.880;8.328;2023-08-30T07:23:05;2.30;;;1.58;;
7031;SDS011;3557;48.880;8.328;2023-08-30T07:25:33;1.60;;;1.50;;
7031;SDS011;3557;48.880;8.328;2023-08-30T07:28:03;1.80;;;1.70;;
7031;SDS011;3557;48.880;8.328;2023-08-30T07:30:31;2.92;;;1.70;;
7031;SDS011;3557;48.880;8.328;2023-08-30T07:33:00;2.13;;;1.92;;
7031;SDS011;3557;48.880;8.328;2023-08-30T07:35:28;3.25;;;1.70;;
7031;SDS011;3557;48.880;8.328;2023-08-30T07:37:56;1.80;;;1.70;;
7031;SDS011;3557;48.880;8.328;2023-08-30T07:40:23;2.95;;;1.88;;
7031;SDS011;3557;48.880;8.328;2023-08-30T07:42:53;2.35;;;1.90;;
7031;SDS011;3557;48.880;8.328;2023-08-30T07:45:22;2.00;;;1.80;;
7031;SDS011;3557;48.880;8.328;2023-08-30T07:47:49;3.25;;;2.00;;
7031;SDS011;3557;48.880;8.328;2023-08-30T07:50:17;2.20;;;2.00;;
7031;SDS011;3557;48.880;8.328;2023-08-30T07:52:44;2.30;;;2.10;;
7031;SDS011;3557;48.880;8.328;2023-08-30T07:55:12;2.33;;;2.05;;
7031;SDS011;3557;48.880;8.328;2023-08-30T07:57:40;2.55;;;2.13;;
7031;SDS011;3557;48.880;8.328;2023-08-30T08:00:08;3.47;;;1.98;;
7031;SDS011;3557;48.880;8.328;2023-08-30T08:02:38;3.22;;;2.10;;
7031;SDS011;3557;48.880;8.328;2023-08-30T08:05:06;4.13;;;2.10;;
7031;SDS011;3557;48.880;8.328;2023-08-30T08:07:35;2.97;;;2.00;;
7031;SDS011;3557;48.880;8.328;2023-08-30T08:10:05;3.58;;;2.20;;
7031;SDS011;3557;48.880;8.328;2023-08-30T08:12:34;2.78;;;2.15;;
7031;SDS011;3557;48.880;8.328;2023-08-30T08:15:02;2.83;;;2.38;;
7031;SDS011;3557;48.880;8.328;2023-08-30T08:17:30;5.32;;;2.75;;
7031;SDS011;3557;48.880;8.328;2023-08-30T08:19:59;3.80;;;2.53;;
7031;SDS011;3557;48.880;8.328;2023-08-30T08:22:26;3.25;;;2.40;;
7031;SDS011;3557;48.880;8.328;2023-08-30T08:24:54;2.50;;;2.30;;
7031;SDS011;3557;48.880;8.328;2023-08-30T08:27:22;2.65;;;2.35;;
7031;SDS011;3557;48.880;8.328;2023-08-30T08:29:51;2.30;;;2.10;;
7031;SDS011;3557;48.880;8.328;2023-08-30T08:32:18;3.15;;;2.20;;
7031;SDS011;3557;48.880;8.328;2023-08-30T08:34:46;2.40;;;2.20;;
7031;SDS011;3557;48.880;8.328;2023-08-30T08:37:15;3.38;;;2.20;;
7031;SDS011;3557;48.880;8.328;2023-08-30T08:39:42;3.03;;;2.20;;
7031;SDS011;3557;48.880;8.328;2023-08-30T08:42:11;2.40;;;2.00;;
7031;SDS011;3557;48.880;8.328;2023-08-30T08:44:40;2.53;;;2.28;;
7031;SDS011;3557;48.880;8.328;2023-08-30T08:47:08;2.60;;;2.38;;
7031;SDS011;3557;48.880;8.328;2023-08-30T08:49:35;2.70;;;2.50;;
7031;SDS011;3557;48.880;8.328;2023-08-30T08:52:03;3.17;;;2.17;;
7031;SDS011;3557;48.880;8.328;2023-08-30T08:54:32;6.32;;;2.42;;
7031;SDS011;3557;48.880;8.328;2023-08-30T08:57:00;2.40;;;2.20;;
7031;SDS011;3557;48.880;8.328;2023-08-30T08:59:28;2.83;;;2.28;;
7031;SDS011;3557;48.880;8.328;2023-08-30T09:01:55;2.67;;;2.20;;
7031;SDS011;3557;48.880;8.328;2023-08-30T09:04:22;3.05;;;2.38;;
7031;SDS011;3557;48.880;8.328;2023-08-30T09:06:51;4.72;;;2.58;;
7031;SDS011;3557;48.880;8.328;2023-08-30T09:09:18;3.03;;;2.55;;
7031;SDS011;3557;48.880;8.328;2023-08-30T09:11:48;2.50;;;2.30;;
7031;SDS011;3557;48.880;8.328;2023-08-30T09:14:15;2.90;;;2.28;;
7031;SDS011;3557;48.880;8.328;2023-08-30T09:16:43;2.45;;;2.25;;
7031;SDS011;3557;48.880;8.328;2023-08-30T09:19:21;2.45;;;2.25;;
7031;SDS011;3557;48.880;8.328;2023-08-30T09:21:51;3.00;;;2.70;;
7031;SDS011;3557;48.880;8.328;2023-08-30T09:24:19;2.72;;;2.35;;
7031;SDS011;3557;48.880;8.328;2023-08-30T09:26:48;2.80;;;2.30;;
7031;SDS011;3557;48.880;8.328;2023-08-30T09:29:18;4.57;;;2.40;;
7031;SDS011;3557;48.880;8.328;2023-08-30T09:31:49;3.25;;;2.50;;
7031;SDS011;3557;48.880;8.328;2023-08-30T09:34:21;3.88;;;2.30;;
7031;SDS011;3557;48.880;8.328;2023-08-30T09:36:50;2.90;;;2.40;;
7031;SDS011;3557;48.880;8.328;2023-08-30T09:39:18;2.40;;;2.20;;
7031;SDS011;3557;48.880;8.328;2023-08-30T09:41:46;5.32;;;2.50;;
7031;SDS011;3557;48.880;8.328;2023-08-30T09:44:16;2.90;;;2.35;;
7031;SDS011;3557;48.880;8.328;2023-08-30T09:46:46;2.83;;;2.38;;
7031;SDS011;3557;48.880;8.328;2023-08-30T09:49:17;3.55;;;2.40;;
7031;SDS011;3557;48.880;8.328;2023-08-30T09:51:46;3.45;;;2.30;;
7031;SDS011;3557;48.880;8.328;2023-08-30T09:54:17;4.35;;;2.45;;
7031;SDS011;3557;48.880;8.328;2023-08-30T09:56:47;2.90;;;2.30;;
7031;SDS011;3557;48.880;8.328;2023-08-30T09:59:17;2.78;;;2.30;;
7031;SDS011;3557;48.880;8.328;2023-08-30T10:01:46;2.45;;;2.25;;
7031;SDS011;3557;48.880;8.328;2023-08-30T10:04:14;3.47;;;2.20;;
7031;SDS011;3557;48.880;8.328;2023-08-30T10:06:42;2.97;;;2.20;;
7031;SDS011;3557;48.880;8.328;2023-08-30T10:09:12;3.40;;;2.45;;
7031;SDS011;3557;48.880;8.328;2023-08-30T10:11:44;2.47;;;2.28;;
7031;SDS011;3557;48.880;8.328;2023-08-30T10:14:13;3.05;;;2.20;;
7031;SDS011;3557;48.880;8.328;2023-08-30T10:16:42;2.65;;;2.30;;
7031;SDS011;3557;48.880;8.328;2023-08-30T10:19:11;3.80;;;2.38;;
7031;SDS011;3557;48.880;8.328;2023-08-30T10:21:42;3.42;;;2.22;;
7031;SDS011;3557;48.880;8.328;2023-08-30T10:24:11;2.95;;;2.47;;
7031;SDS011;3557;48.880;8.328;2023-08-30T10:26:43;3.47;;;2.50;;
7031;SDS011;3557;48.880;8.328;2023-08-30T10:29:13;4.75;;;2.38;;
7031;SDS011;3557;48.880;8.328;2023-08-30T10:31:41;2.40;;;1.90;;
7031;SDS011;3557;48.880;8.328;2023-08-30T10:34:13;2.20;;;2.00;;
7031;SDS011;3557;48.880;8.328;2023-08-30T10:36:41;2.30;;;2.10;;
7031;SDS011;3557;48.880;8.328;2023-08-30T10:39:12;3.08;;;1.98;;
7031;SDS011;3557;48.880;8.328;2023-08-30T10:41:54;2.40;;;2.00;;
7031;SDS011;3557;48.880;8.328;2023-08-30T10:44:23;2.20;;;1.95;;
7031;SDS011;3557;48.880;8.328;2023-08-30T10:46:54;2.03;;;1.75;;
7031;SDS011;3557;48.880;8.328;2023-08-30T10:49:22;2.10;;;1.90;;
7031;SDS011;3557;48.880;8.328;2023-08-30T10:51:54;2.70;;;2.20;;
7031;SDS011;3557;48.880;8.328;2023-08-30T10:54:23;1.98;;;1.88;;
7031;SDS011;3557;48.880;8.328;2023-08-30T10:56:54;2.05;;;1.88;;
7031;SDS011;3557;48.880;8.328;2023-08-30T10:59:25;2.08;;;1.73;;
7031;SDS011;3557;48.880;8.328;2023-08-30T11:01:54;4.40;;;1.92;;
7031;SDS011;3557;48.880;8.328;2023-08-30T11:04:22;2.22;;;2.00;;
7031;SDS011;3557;48.880;8.328;2023-08-30T11:06:50;2.05;;;1.85;;
7031;SDS011;3557;48.880;8.328;2023-08-30T11:09:22;3.05;;;1.70;;
7031;SDS011;3557;48.880;8.328;2023-08-30T11:11:51;1.92;;;1.80;;
7031;SDS011;3557;48.880;8.328;2023-08-30T11:14:19;3.40;;;2.05;;
7031;SDS011;3557;48.880;8.328;2023-08-30T11:16:48;3.17;;;1.80;;
7031;SDS011;3557;48.880;8.328;2023-08-30T11:19:15;2.50;;;1.83;;
7031;SDS011;3557;48.880;8.328;2023-08-30T11:21:43;2.33;;;1.90;;
7031;SDS011;3557;48.880;8.328;2023-08-30T11:24:11;2.85;;;1.85;;
7031;SDS011;3557;48.880;8.328;2023-08-30T11:26:39;2.03;;;1.75;;
7031;SDS011;3557;48.880;8.328;2023-08-30T11:29:06;4.07;;;2.10;;
7031;SDS011;3557;48.880;8.328;2023-08-30T11:31:34;2.28;;;2.08;;
7031;SDS011;3557;48.880;8.328;2023-08-30T11:34:07;3.65;;;2.05;;
7031;SDS011;3557;48.880;8.328;2023-08-30T11:36:37;2.45;;;1.90;;
7031;SDS011;3557;48.880;8.328;2023-08-30T11:39:06;2.60;;;1.95;;
7031;SDS011;3557;48.880;8.328;2023-08-30T11:41:36;2.20;;;1.80;;
7031;SDS011;3557;48.880;8.328;2023-08-30T11:44:05;5.75;;;1.90;;
7031;SDS011;3557;48.880;8.328;2023-08-30T11:46:35;4.45;;;3.00;;
7031;SDS011;3557;48.880;8.328;2023-08-30T11:49:06;2.00;;;1.88;;
7031;SDS011;3557;48.880;8.328;2023-08-30T11:51:38;2.00;;;1.90;;
7031;SDS011;3557;48.880;8.328;2023-08-30T11:54:06;1.85;;;1.75;;
7031;SDS011;3557;48.880;8.328;2023-08-30T11:56:35;2.58;;;1.73;;
7031;SDS011;3557;48.880;8.328;2023-08-30T11:59:03;2.72;;;1.70;;
7031;SDS011;3557;48.880;8.328;2023-08-30T12:01:33;4.22;;;1.85;;
7031;SDS011;3557;48.880;8.328;2023-08-30T12:04:10;3.15;;;1.80;;
7031;SDS011;3557;48.880;8.328;2023-08-30T12:06:37;2.03;;;1.77;;
7031;SDS011;3557;48.880;8.328;2023-08-30T12:09:05;2.60;;;1.73;;
7031;SDS011;3557;48.880;8.328;2023-08-30T12:11:37;4.88;;;1.92;;
7031;SDS011;3557;48.880;8.328;2023-08-30T12:14:04;2.60;;;1.75;;
7031;SDS011;3557;48.880;8.328;2023-08-30T12:16:32;3.53;;;1.70;;
7031;SDS011;3557;48.880;8.328;2023-08-30T12:19:07;3.67;;;1.63;;
7031;SDS011;3557;48.880;8.328;2023-08-30T12:21:39;1.98;;;1.77;;
7031;SDS011;3557;48.880;8.328;2023-08-30T12:24:07;4.03;;;1.70;;
7031;SDS011;3557;48.880;8.328;2023-08-30T12:26:35;2.80;;;1.80;;
7031;SDS011;3557;48.880;8.328;2023-08-30T12:29:03;1.75;;;1.50;;
7031;SDS011;3557;48.880;8.328;2023-08-30T12:31:31;2.60;;;1.90;;
7031;SDS011;3557;48.880;8.328;2023-08-30T12:34:01;2.00;;;1.75;;
7031;SDS011;3557;48.880;8.328;2023-08-30T12:36:30;2.38;;;1.95;;
7031;SDS011;3557;48.880;8.328;2023-08-30T12:38:58;3.25;;;1.70;;
7031;SDS011;3557;48.880;8.328;2023-08-30T12:41:25;3.97;;;1.80;;
7031;SDS011;3557;48.880;8.328;2023-08-30T12:43:53;1.70;;;1.60;;
7031;SDS011;3557;48.880;8.328;2023-08-30T12:46:20;1.75;;;1.60;;
7031;SDS011;3557;48.880;8.328;2023-08-30T12:48:47;2.42;;;1.77;;
7031;SDS011;3557;48.880;8.328;2023-08-30T12:51:15;1.48;;;1.30;;
7031;SDS011;3557;48.880;8.328;2023-08-30T12:53:43;2.50;;;1.60;;
7031;SDS011;3557;48.880;8.328;2023-08-30T12:56:11;2.30;;;1.40;;
7031;SDS011;3557;48.880;8.328;2023-08-30T12:58:38;1.88;;;1.63;;
7031;SDS011;3557;48.880;8.328;2023-08-30T13:01:05;1.95;;;1.70;;
7031;SDS011;3557;48.880;8.328;2023-08-30T13:03:33;2.13;;;1.52;;
7031;SDS011;3557;48.880;8.328;2023-08-30T13:06:00;1.85;;;1.58;;
7031;SDS011;3557;48.880;8.328;2023-08-30T13:08:29;2.30;;;1.77;;
7031;SDS011;3557;48.880;8.328;2023-08-30T13:11:00;7.68;;;2.20;;
7031;SDS011;3557;48.880;8.328;2023-08-30T13:13:27;2.65;;;1.50;;
7031;SDS011;3557;48.880;8.328;2023-08-30T13:15:54;2.53;;;1.90;;
7031;SDS011;3557;48.880;8.328;2023-08-30T13:18:22;3.10;;;1.60;;
7031;SDS011;3557;48.880;8.328;2023-08-30T13:20:49;1.60;;;1.50;;
7031;SDS011;3557;48.880;8.328;2023-08-30T13:23:19;1.85;;;1.70;;
7031;SDS011;3557;48.880;8.328;2023-08-30T13:25:47;3.10;;;1.80;;
7031;SDS011;3557;48.880;8.328;2023-08-30T13:28:16;3.10;;;1.63;;
7031;SDS011;3557;48.880;8.328;2023-08-30T13:30:44;2.92;;;1.67;;
7031;SDS011;3557;48.880;8.328;2023-08-30T13:33:11;1.60;;;1.50;;
7031;SDS011;3557;48.880;8.328;2023-08-30T13:35:39;3.10;;;1.60;;
7031;SDS011;3557;48.880;8.328;2023-08-30T13:38:07;2.33;;;1.67;;
7031;SDS011;3557;48.880;8.328;2023-08-30T13:40:34;1.55;;;1.45;;
7031;SDS011;3557;48.880;8.328;2023-08-30T13:43:14;1.70;;;1.60;;
7031;SDS011;3557;48.880;8.328;2023-08-30T13:45:45;3.17;;;1.90;;
7031;SDS011;3557;48.880;8.328;2023-08-30T13:48:14;3.47;;;1.60;;
7031;SDS011;3557;48.880;8.328;2023-08-30T13:50:41;3.55;;;1.80;;
7031;SDS011;3557;48.880;8.328;2023-08-30T13:53:09;1.92;;;1.70;;
7031;SDS011;3557;48.880;8.328;2023-08-30T13:55:37;6.57;;;1.85;;
7031;SDS011;3557;48.880;8.328;2023-08-30T13:58:05;2.22;;;1.73;;
7031;SDS011;3557;48.880;8.328;2023-08-30T14:00:33;2.05;;;1.60;;
7031;SDS011;3557;48.880;8.328;2023-08-30T14:03:01;2.03;;;1.70;;
7031;SDS011;3557;48.880;8.328;2023-08-30T14:05:28;1.95;;;1.70;;
7031;SDS011;3557;48.880;8.328;2023-08-30T14:07:56;2.53;;;1.55;;
7031;SDS011;3557;48.880;8.328;2023-08-30T14:10:23;3.10;;;1.70;;
7031;SDS011;3557;48.880;8.328;2023-08-30T14:12:51;1.63;;;1.50;;
7031;SDS011;3557;48.880;8.328;2023-08-30T14:15:19;3.63;;;2.03;;
7031;SDS011;3557;48.880;8.328;2023-08-30T14:17:47;2.80;;;1.60;;
7031;SDS011;3557;48.880;8.328;2023-08-30T14:20:15;2.25;;;1.58;;
7031;SDS011;3557;48.880;8.328;2023-08-30T14:22:42;2.55;;;1.60;;
7031;SDS011;3557;48.880;8.328;2023-08-30T14:25:10;3.15;;;1.60;;
7031;SDS011;3557;48.880;8.328;2023-08-30T14:27:38;2.65;;;1.50;;
7031;SDS011;3557;48.880;8.328;2023-08-30T14:30:06;2.22;;;1.50;;
7031;SDS011;3557;48.880;8.328;2023-08-30T14:32:34;2.03;;;1.60;;
7031;SDS011;3557;48.880;8.328;2023-08-30T14:35:04;1.83;;;1.73;;
7031;SDS011;3557;48.880;8.328;2023-08-30T14:37:32;1.73;;;1.57;;
7031;SDS011;3557;48.880;8.328;2023-08-30T14:40:01;3.65;;;1.52;;
7031;SDS011;3557;48.880;8.328;2023-08-30T14:42:29;2.25;;;1.92;;
7031;SDS011;3557;48.880;8.328;2023-08-30T14:44:57;2.65;;;1.60;;
7031;SDS011;3557;48.880;8.328;2023-08-30T14:47:24;3.20;;;1.65;;
7031;SDS011;3557;48.880;8.328;2023-08-30T14:49:52;3.70;;;1.83;;
7031;SDS011;3557;48.880;8.328;2023-08-30T14:52:23;2.83;;;1.60;;
7031;SDS011;3557;48.880;8.328;2023-08-30T14:54:50;4.38;;;1.50;;
7031;SDS011;3557;48.880;8.328;2023-08-30T14:57:18;2.25;;;1.70;;
7031;SDS011;3557;48.880;8.328;2023-08-30T14:59:45;3.00;;;1.70;;
7031;SDS011;3557;48.880;8.328;2023-08-30T15:02:13;2.40;;;1.63;;
7031;SDS011;3557;48.880;8.328;2023-08-30T15:04:40;2.78;;;1.60;;
7031;SDS011;3557;48.880;8.328;2023-08-30T15:07:07;1.95;;;1.40;;
7031;SDS011;3557;48.880;8.328;2023-08-30T15:09:36;3.13;;;1.67;;
7031;SDS011;3557;48.880;8.328;2023-08-30T15:12:04;1.75;;;1.52;;
7031;SDS011;3557;48.880;8.328;2023-08-30T15:14:32;1.60;;;1.50;;
7031;SDS011;3557;48.880;8.328;2023-08-30T15:17:00;2.55;;;1.67;;
7031;SDS011;3557;48.880;8.328;2023-08-30T15:19:28;2.90;;;1.60;;
7031;SDS011;3557;48.880;8.328;2023-08-30T15:21:55;2.92;;;1.60;;
7031;SDS011;3557;48.880;8.328;2023-08-30T15:24:22;1.70;;;1.60;;